Terminal Aerodrome Forecast
Issued by NWS

Home | Current Version | Previous Version | Graphics & Text | Print | Product List | Glossary On
Versions: 1 2 3 4 5 6 7 8 9 10 11 12 13 14 15 16 17 18 19 20 21 22 23 24 25 26 27 28 29 30 31 32 33
000
FTUS43 KLOT 201725
TAFORD
TAF
KORD 201725Z 2018/2124 06010KT P6SM OVC100
      TEMPO 2019/2022 -SHRA BKN050
     FM210100 VRB04KT P6SM BKN060
     FM210800 29005KT P6SM BKN080
     FM211400 29010KT P6SM SCT120
     FM211800 29012G18KT P6SM SCT050=

USA.gov is the U.S. government's official web portal to all federal, state and local government web resources and services.